sensor_id;sensor_type;location;lat;lon;timestamp;pressure;altitude;pressure_sealevel;temperature;humidity
5988;BME280;3021;51.000;6.980;2022-10-17T00:00:59;68181.97;;;16.85;100.00
5988;BME280;3021;51.000;6.980;2022-10-17T00:03:26;68179.66;;;16.83;100.00
5988;BME280;3021;51.000;6.980;2022-10-17T00:05:51;68177.47;;;16.84;100.00
5988;BME280;3021;51.000;6.980;2022-10-17T00:08:17;68181.41;;;16.85;100.00
5988;BME280;3021;51.000;6.980;2022-10-17T00:10:44;68176.88;;;16.83;100.00
5988;BME280;3021;51.000;6.980;2022-10-17T00:13:09;68178.63;;;16.85;100.00
5988;BME280;3021;51.000;6.980;2022-10-17T00:15:35;68183.16;;;16.86;100.00
5988;BME280;3021;51.000;6.980;2022-10-17T00:18:01;68175.59;;;16.80;100.00
5988;BME280;3021;51.000;6.980;2022-10-17T00:20:27;68181.53;;;16.87;100.00
5988;BME280;3021;51.000;6.980;2022-10-17T00:22:55;68186.66;;;16.89;100.00
5988;BME280;3021;51.000;6.980;2022-10-17T00:25:20;68178.75;;;16.87;100.00
5988;BME280;3021;51.000;6.980;2022-10-17T00:27:45;68186.66;;;16.89;100.00
5988;BME280;3021;51.000;6.980;2022-10-17T00:30:13;68182.13;;;16.88;100.00
5988;BME280;3021;51.000;6.980;2022-10-17T00:32:39;68175.72;;;16.82;100.00
5988;BME280;3021;51.000;6.980;2022-10-17T00:35:04;68169.34;;;16.76;100.00
5988;BME280;3021;51.000;6.980;2022-10-17T00:37:30;68175.59;;;16.80;100.00
5988;BME280;3021;51.000;6.980;2022-10-17T00:39:56;68179.22;;;16.85;100.00
5988;BME280;3021;51.000;6.980;2022-10-17T00:42:21;68179.66;;;16.83;100.00
5988;BME280;3021;51.000;6.980;2022-10-17T00:47:17;68179.78;;;16.86;100.00
5988;BME280;3021;51.000;6.980;2022-10-17T00:49:43;68178.63;;;16.85;100.00
5988;BME280;3021;51.000;6.980;2022-10-17T00:52:20;68186.78;;;16.92;100.00
5988;BME280;3021;51.000;6.980;2022-10-17T00:54:48;68188.38;;;16.91;100.00
5988;BME280;3021;51.000;6.980;2022-10-17T00:57:16;68187.38;;;16.92;100.00
5988;BME280;3021;51.000;6.980;2022-10-17T00:59:43;68194.78;;;16.97;100.00
5988;BME280;3021;51.000;6.980;2022-10-17T01:02:15;68191.31;;;16.93;100.00
5988;BME280;3021;51.000;6.980;2022-10-17T01:04:46;68183.88;;;16.89;100.00
5988;BME280;3021;51.000;6.980;2022-10-17T01:07:12;68185.63;;;16.91;100.00
5988;BME280;3021;51.000;6.980;2022-10-17T01:09:38;68184.91;;;16.88;100.00
5988;BME280;3021;51.000;6.980;2022-10-17T01:17:33;68189.56;;;16.92;100.00
5988;BME280;3021;51.000;6.980;2022-10-17T01:20:22;68177.47;;;16.84;100.00
5988;BME280;3021;51.000;6.980;2022-10-17T01:25:56;68164.69;;;16.72;100.00
5988;BME280;3021;51.000;6.980;2022-10-17T01:31:13;68174.00;;;16.81;100.00
5988;BME280;3021;51.000;6.980;2022-10-17T01:36:24;68180.38;;;16.86;100.00
5988;BME280;3021;51.000;6.980;2022-10-17T01:38:59;68188.97;;;16.91;100.00
5988;BME280;3021;51.000;6.980;2022-10-17T01:41:42;68189.09;;;16.94;100.00
5988;BME280;3021;51.000;6.980;2022-10-17T01:44:12;68193.75;;;16.98;100.00
5988;BME280;3021;51.000;6.980;2022-10-17T01:46:45;68189.69;;;16.95;100.00
5988;BME280;3021;51.000;6.980;2022-10-17T01:49:14;68182.28;;;16.90;100.00
5988;BME280;3021;51.000;6.980;2022-10-17T01:51:48;68178.19;;;16.87;100.00
5988;BME280;3021;51.000;6.980;2022-10-17T01:54:35;68179.22;;;16.85;100.00
5988;BME280;3021;51.000;6.980;2022-10-17T01:57:05;68174.41;;;16.79;100.00
5988;BME280;3021;51.000;6.980;2022-10-17T01:59:39;68177.47;;;16.84;100.00
5988;BME280;3021;51.000;6.980;2022-10-17T02:02:05;68177.47;;;16.84;100.00
5988;BME280;3021;51.000;6.980;2022-10-17T02:04:33;68170.50;;;16.78;100.00
5988;BME280;3021;51.000;6.980;2022-10-17T02:07:09;68161.78;;;16.70;100.00
5988;BME280;3021;51.000;6.980;2022-10-17T02:09:35;68153.78;;;16.65;100.00
5988;BME280;3021;51.000;6.980;2022-10-17T02:22:33;68151.19;;;16.58;100.00
5988;BME280;3021;51.000;6.980;2022-10-17T02:30:41;68155.41;;;16.64;100.00
5988;BME280;3021;51.000;6.980;2022-10-17T02:33:43;68156.56;;;16.65;100.00
5988;BME280;3021;51.000;6.980;2022-10-17T02:36:18;68163.97;;;16.69;100.00
5988;BME280;3021;51.000;6.980;2022-10-17T02:38:45;68167.47;;;16.72;100.00
5988;BME280;3021;51.000;6.980;2022-10-17T02:41:15;68175.44;;;16.77;100.00
5988;BME280;3021;51.000;6.980;2022-10-17T02:43:41;68175.88;;;16.85;100.00
5988;BME280;3021;51.000;6.980;2022-10-17T02:46:11;68181.41;;;16.85;100.00
5988;BME280;3021;51.000;6.980;2022-10-17T02:48:49;68175.28;;;16.84;100.00
5988;BME280;3021;51.000;6.980;2022-10-17T02:51:37;68186.66;;;16.89;100.00
5988;BME280;3021;51.000;6.980;2022-10-17T02:56:45;68183.28;;;16.89;100.00
5988;BME280;3021;51.000;6.980;2022-10-17T02:59:14;68193.75;;;16.98;100.00
5988;BME280;3021;51.000;6.980;2022-10-17T03:01:41;68185.75;;;16.93;100.00
5988;BME280;3021;51.000;6.980;2022-10-17T03:04:12;68181.97;;;16.85;100.00
5988;BME280;3021;51.000;6.980;2022-10-17T03:06:39;68178.50;;;16.82;100.00
5988;BME280;3021;51.000;6.980;2022-10-17T03:09:06;68174.56;;;16.81;100.00
5988;BME280;3021;51.000;6.980;2022-10-17T03:11:31;68173.41;;;16.80;100.00
5988;BME280;3021;51.000;6.980;2022-10-17T03:13:57;68188.97;;;16.91;100.00
5988;BME280;3021;51.000;6.980;2022-10-17T03:16:22;68190.84;;;16.96;100.00
5988;BME280;3021;51.000;6.980;2022-10-17T03:18:47;68190.28;;;16.95;100.00
5988;BME280;3021;51.000;6.980;2022-10-17T03:21:13;68193.75;;;16.98;100.00
5988;BME280;3021;51.000;6.980;2022-10-17T03:23:38;68196.81;;;17.03;100.00
5988;BME280;3021;51.000;6.980;2022-10-17T03:26:05;68205.81;;;17.06;100.00
5988;BME280;3021;51.000;6.980;2022-10-17T03:28:30;68210.00;;;17.13;100.00
5988;BME280;3021;51.000;6.980;2022-10-17T03:30:56;68205.97;;;17.09;100.00
5988;BME280;3021;51.000;6.980;2022-10-17T03:33:21;68211.19;;;17.14;100.00
5988;BME280;3021;51.000;6.980;2022-10-17T03:35:46;68212.31;;;17.15;100.00
5988;BME280;3021;51.000;6.980;2022-10-17T03:38:12;68208.84;;;17.12;100.00
5988;BME280;3021;51.000;6.980;2022-10-17T03:40:37;68208.28;;;17.11;100.00
5988;BME280;3021;51.000;6.980;2022-10-17T03:43:03;68211.19;;;17.14;100.00
5988;BME280;3021;51.000;6.980;2022-10-17T03:45:28;68212.94;;;17.15;100.00
5988;BME280;3021;51.000;6.980;2022-10-17T03:47:53;68208.72;;;17.09;100.00
5988;BME280;3021;51.000;6.980;2022-10-17T03:50:19;68196.81;;;17.03;100.00
5988;BME280;3021;51.000;6.980;2022-10-17T03:52:48;68207.09;;;17.10;100.00
5988;BME280;3021;51.000;6.980;2022-10-17T03:55:14;68206.53;;;17.09;100.00
5988;BME280;3021;51.000;6.980;2022-10-17T03:57:39;68220.47;;;17.22;100.00
5988;BME280;3021;51.000;6.980;2022-10-17T04:00:05;68222.22;;;17.23;100.00
5988;BME280;3021;51.000;6.980;2022-10-17T04:02:30;68224.53;;;17.25;100.00
5988;BME280;3021;51.000;6.980;2022-10-17T04:04:56;68219.44;;;17.23;100.00
5988;BME280;3021;51.000;6.980;2022-10-17T04:07:21;68221.63;;;17.23;100.00
5988;BME280;3021;51.000;6.980;2022-10-17T04:09:46;68227.31;;;17.25;100.00
5988;BME280;3021;51.000;6.980;2022-10-17T04:12:11;68236.75;;;17.36;100.00
5988;BME280;3021;51.000;6.980;2022-10-17T04:14:37;68242.53;;;17.41;100.00
5988;BME280;3021;51.000;6.980;2022-10-17T04:17:02;68249.53;;;17.48;100.00
5988;BME280;3021;51.000;6.980;2022-10-17T04:19:28;68250.69;;;17.49;100.00
5988;BME280;3021;51.000;6.980;2022-10-17T04:21:53;68244.28;;;17.43;100.00
5988;BME280;3021;51.000;6.980;2022-10-17T04:24:18;68253.59;;;17.51;100.00
5988;BME280;3021;51.000;6.980;2022-10-17T04:26:44;68258.81;;;17.56;100.00
5988;BME280;3021;51.000;6.980;2022-10-17T04:29:10;68265.53;;;17.57;100.00
5988;BME280;3021;51.000;6.980;2022-10-17T04:31:35;68253.59;;;17.51;100.00
5988;BME280;3021;51.000;6.980;2022-10-17T04:34:01;68243.72;;;17.42;100.00
5988;BME280;3021;51.000;6.980;2022-10-17T04:36:26;68232.66;;;17.33;100.00
5988;BME280;3021;51.000;6.980;2022-10-17T04:38:52;68229.19;;;17.30;100.00
5988;BME280;3021;51.000;6.980;2022-10-17T04:41:18;68236.16;;;17.36;100.00
5988;BME280;3021;51.000;6.980;2022-10-17T04:43:43;68231.50;;;17.32;100.00
5988;BME280;3021;51.000;6.980;2022-10-17T04:46:11;68233.25;;;17.33;100.00
5988;BME280;3021;51.000;6.980;2022-10-17T04:48:38;68229.75;;;17.30;100.00
5988;BME280;3021;51.000;6.980;2022-10-17T04:51:06;68237.91;;;17.37;100.00
5988;BME280;3021;51.000;6.980;2022-10-17T04:53:37;68233.25;;;17.33;100.00
5988;BME280;3021;51.000;6.980;2022-10-17T04:56:13;68224.09;;;17.27;100.00
5988;BME280;3021;51.000;6.980;2022-10-17T04:58:40;68238.34;;;17.35;100.00
5988;BME280;3021;51.000;6.980;2022-10-17T05:01:08;68238.94;;;17.36;100.00
5988;BME280;3021;51.000;6.980;2022-10-17T05:03:34;68232.09;;;17.32;100.00
5988;BME280;3021;51.000;6.980;2022-10-17T05:06:08;68236.00;;;17.33;100.00
5988;BME280;3021;51.000;6.980;2022-10-17T05:08:34;68233.84;;;17.34;100.00
5988;BME280;3021;51.000;6.980;2022-10-17T05:10:59;68232.66;;;17.33;100.00
5988;BME280;3021;51.000;6.980;2022-10-17T05:13:25;68225.56;;;17.24;100.00
5988;BME280;3021;51.000;6.980;2022-10-17T05:15:50;68228.47;;;17.26;100.00
5988;BME280;3021;51.000;6.980;2022-10-17T05:18:15;68218.72;;;17.20;100.00
5988;BME280;3021;51.000;6.980;2022-10-17T05:20:41;68219.31;;;17.21;100.00
5988;BME280;3021;51.000;6.980;2022-10-17T05:23:06;68226.75;;;17.25;100.00
5988;BME280;3021;51.000;6.980;2022-10-17T05:25:31;68231.97;;;17.30;100.00
5988;BME280;3021;51.000;6.980;2022-10-17T05:27:57;68230.94;;;17.31;100.00
5988;BME280;3021;51.000;6.980;2022-10-17T05:30:22;68230.94;;;17.31;100.00
5988;BME280;3021;51.000;6.980;2022-10-17T05:32:51;68226.84;;;17.27;100.00
5988;BME280;3021;51.000;6.980;2022-10-17T05:35:16;68233.69;;;17.31;100.00
5988;BME280;3021;51.000;6.980;2022-10-17T05:37:42;68242.53;;;17.41;100.00
5988;BME280;3021;51.000;6.980;2022-10-17T05:40:07;68233.25;;;17.33;100.00
5988;BME280;3021;51.000;6.980;2022-10-17T05:42:33;68236.59;;;17.34;100.00
5988;BME280;3021;51.000;6.980;2022-10-17T05:44:58;68224.69;;;17.28;100.00
5988;BME280;3021;51.000;6.980;2022-10-17T05:47:23;68225.72;;;17.26;100.00
5988;BME280;3021;51.000;6.980;2022-10-17T05:49:49;68231.63;;;17.34;100.00
5988;BME280;3021;51.000;6.980;2022-10-17T05:52:14;68229.19;;;17.30;100.00
5988;BME280;3021;51.000;6.980;2022-10-17T05:54:39;68229.75;;;17.30;100.00
5988;BME280;3021;51.000;6.980;2022-10-17T05:57:05;68228.47;;;17.26;100.00
5988;BME280;3021;51.000;6.980;2022-10-17T05:59:30;68226.28;;;17.27;100.00
5988;BME280;3021;51.000;6.980;2022-10-17T06:01:56;68230.34;;;17.31;100.00
5988;BME280;3021;51.000;6.980;2022-10-17T06:04:21;68236.88;;;17.39;100.00
5988;BME280;3021;51.000;6.980;2022-10-17T06:06:46;68234.41;;;17.34;100.00
5988;BME280;3021;51.000;6.980;2022-10-17T06:09:12;68250.53;;;17.46;100.00
5988;BME280;3021;51.000;6.980;2022-10-17T06:11:37;68232.81;;;17.35;100.00
5988;BME280;3021;51.000;6.980;2022-10-17T06:14:03;68246.03;;;17.44;100.00
5988;BME280;3021;51.000;6.980;2022-10-17T06:16:29;68247.34;;;17.48;100.00
5988;BME280;3021;51.000;6.980;2022-10-17T06:18:54;68250.25;;;17.51;100.00
5988;BME280;3021;51.000;6.980;2022-10-17T06:21:23;68250.09;;;17.48;100.00
5988;BME280;3021;51.000;6.980;2022-10-17T06:23:49;68255.78;;;17.51;100.00
5988;BME280;3021;51.000;6.980;2022-10-17T06:26:15;68258.81;;;17.56;100.00
5988;BME280;3021;51.000;6.980;2022-10-17T06:28:40;68260.56;;;17.57;100.00
5988;BME280;3021;51.000;6.980;2022-10-17T06:31:14;68262.28;;;17.59;100.00
5988;BME280;3021;51.000;6.980;2022-10-17T06:33:40;68267.41;;;17.61;100.00
5988;BME280;3021;51.000;6.980;2022-10-17T06:36:06;68276.72;;;17.69;100.00
5988;BME280;3021;51.000;6.980;2022-10-17T06:38:33;68281.47;;;17.76;100.00
5988;BME280;3021;51.000;6.980;2022-10-17T06:41:07;68303.03;;;17.95;100.00
5988;BME280;3021;51.000;6.980;2022-10-17T06:43:36;68308.25;;;18.00;100.00
5988;BME280;3021;51.000;6.980;2022-10-17T06:46:02;68316.38;;;18.07;100.00
5988;BME280;3021;51.000;6.980;2022-10-17T06:48:28;68332.53;;;18.19;100.00
5988;BME280;3021;51.000;6.980;2022-10-17T06:50:57;68329.19;;;18.18;100.00
5988;BME280;3021;51.000;6.980;2022-10-17T06:53:23;68327.44;;;18.17;100.00
5988;BME280;3021;51.000;6.980;2022-10-17T06:55:51;68344.75;;;18.29;100.00
5988;BME280;3021;51.000;6.980;2022-10-17T06:58:18;68340.22;;;18.28;100.00
5988;BME280;3021;51.000;6.980;2022-10-17T07:00:43;68340.22;;;18.28;100.00
5988;BME280;3021;51.000;6.980;2022-10-17T07:03:08;68358.81;;;18.44;100.00
5988;BME280;3021;51.000;6.980;2022-10-17T07:05:34;68369.31;;;18.54;100.00
5988;BME280;3021;51.000;6.980;2022-10-17T07:07:59;68363.59;;;18.51;100.00
5988;BME280;3021;51.000;6.980;2022-10-17T07:10:25;68381.19;;;18.69;100.00
5988;BME280;3021;51.000;6.980;2022-10-17T07:12:51;68398.97;;;18.80;100.00
5988;BME280;3021;51.000;6.980;2022-10-17T07:15:16;68415.25;;;18.94;100.00
5988;BME280;3021;51.000;6.980;2022-10-17T07:17:41;68414.22;;;18.96;100.00
5988;BME280;3021;51.000;6.980;2022-10-17T07:20:07;68432.72;;;19.10;100.00
5988;BME280;3021;51.000;6.980;2022-10-17T07:22:33;68449.00;;;19.24;100.00
5988;BME280;3021;51.000;6.980;2022-10-17T07:24:58;68461.81;;;19.36;100.00
5988;BME280;3021;51.000;6.980;2022-10-17T07:27:24;68476.94;;;19.49;100.00
5988;BME280;3021;51.000;6.980;2022-10-17T07:29:52;68496.75;;;19.66;100.00
5988;BME280;3021;51.000;6.980;2022-10-17T07:32:18;68515.97;;;19.83;100.00
5988;BME280;3021;51.000;6.980;2022-10-17T07:34:43;68521.06;;;19.85;100.00
5988;BME280;3021;51.000;6.980;2022-10-17T07:37:08;68529.81;;;19.93;100.00
5988;BME280;3021;51.000;6.980;2022-10-17T07:39:34;68542.16;;;20.07;100.00
5988;BME280;3021;51.000;6.980;2022-10-17T07:42:00;68535.16;;;20.00;100.00
5988;BME280;3021;51.000;6.980;2022-10-17T07:44:25;68536.94;;;20.02;100.00
5988;BME280;3021;51.000;6.980;2022-10-17T07:46:50;68546.38;;;20.13;100.00
5988;BME280;3021;51.000;6.980;2022-10-17T07:49:16;68553.81;;;20.17;100.00
5988;BME280;3021;51.000;6.980;2022-10-17T07:51:41;68599.81;;;20.58;100.00
5988;BME280;3021;51.000;6.980;2022-10-17T07:54:07;68641.78;;;20.95;100.00
5988;BME280;3021;51.000;6.980;2022-10-17T07:56:32;68756.03;;;21.96;100.00
5988;BME280;3021;51.000;6.980;2022-10-17T07:58:58;68765.50;;;22.06;100.00
5988;BME280;3021;51.000;6.980;2022-10-17T08:01:23;68692.94;;;21.37;100.00
5988;BME280;3021;51.000;6.980;2022-10-17T08:03:50;68652.25;;;21.04;100.00
5988;BME280;3021;51.000;6.980;2022-10-17T08:06:16;68628.38;;;20.83;100.00
5988;BME280;3021;51.000;6.980;2022-10-17T08:08:42;68616.72;;;20.73;100.00
5988;BME280;3021;51.000;6.980;2022-10-17T08:11:10;68607.97;;;20.65;100.00
5988;BME280;3021;51.000;6.980;2022-10-17T08:13:36;68605.63;;;20.63;100.00
5988;BME280;3021;51.000;6.980;2022-10-17T08:16:04;68602.72;;;20.60;100.00
5988;BME280;3021;51.000;6.980;2022-10-17T08:18:31;68602.84;;;20.63;100.00
5988;BME280;3021;51.000;6.980;2022-10-17T08:21:01;68629.53;;;20.84;100.00
5988;BME280;3021;51.000;6.980;2022-10-17T08:23:27;68635.34;;;20.89;100.00
5988;BME280;3021;51.000;6.980;2022-10-17T08:25:53;68646.44;;;20.99;100.00
5988;BME280;3021;51.000;6.980;2022-10-17T08:28:18;68633.63;;;20.87;100.00
5988;BME280;3021;51.000;6.980;2022-10-17T08:30:44;68610.91;;;20.67;100.00
5988;BME280;3021;51.000;6.980;2022-10-17T08:33:09;68616.16;;;20.72;100.00
5988;BME280;3021;51.000;6.980;2022-10-17T08:35:34;68633.63;;;20.87;100.00
5988;BME280;3021;51.000;6.980;2022-10-17T08:38:00;68640.72;;;20.96;100.00
5988;BME280;3021;51.000;6.980;2022-10-17T08:40:28;68638.97;;;20.95;100.00
5988;BME280;3021;51.000;6.980;2022-10-17T08:46:03;68644.81;;;21.00;100.00
5988;BME280;3021;51.000;6.980;2022-10-17T08:48:35;68641.19;;;20.94;100.00
5988;BME280;3021;51.000;6.980;2022-10-17T08:58:40;68646.44;;;20.99;100.00
5988;BME280;3021;51.000;6.980;2022-10-17T09:17:33;68689.56;;;21.37;100.00
5988;BME280;3021;51.000;6.980;2022-10-17T09:20:11;68665.09;;;21.15;100.00
5988;BME280;3021;51.000;6.980;2022-10-17T09:25:14;68694.81;;;21.41;100.00
5988;BME280;3021;51.000;6.980;2022-10-17T09:27:47;68697.25;;;21.46;100.00
5988;BME280;3021;51.000;6.980;2022-10-17T09:30:34;68708.94;;;21.56;100.00
5988;BME280;3021;51.000;6.980;2022-10-17T09:33:29;68710.00;;;21.55;100.00
5988;BME280;3021;51.000;6.980;2022-10-17T09:35:55;68704.28;;;21.52;100.00
5988;BME280;3021;51.000;6.980;2022-10-17T09:38:25;68743.91;;;21.87;100.00
5988;BME280;3021;51.000;6.980;2022-10-17T09:40:59;68741.59;;;21.85;100.00
5988;BME280;3021;51.000;6.980;2022-10-17T09:43:25;68726.41;;;21.72;100.00
5988;BME280;3021;51.000;6.980;2022-10-17T09:46:20;68716.41;;;21.61;100.00
5988;BME280;3021;51.000;6.980;2022-10-17T09:48:54;68718.84;;;21.65;100.00
5988;BME280;3021;51.000;6.980;2022-10-17T09:51:21;68714.75;;;21.62;100.00
5988;BME280;3021;51.000;6.980;2022-10-17T09:53:50;68708.22;;;21.53;100.00
5988;BME280;3021;51.000;6.980;2022-10-17T09:56:18;68704.72;;;21.50;100.00
5988;BME280;3021;51.000;6.980;2022-10-17T09:58:50;68699.03;;;21.48;100.00
5988;BME280;3021;51.000;6.980;2022-10-17T10:03:47;68703.69;;;21.52;100.00
5988;BME280;3021;51.000;6.980;2022-10-17T10:08:52;68714.06;;;21.58;100.00
5988;BME280;3021;51.000;6.980;2022-10-17T10:11:22;68735.75;;;21.80;100.00
5988;BME280;3021;51.000;6.980;2022-10-17T10:13:49;68755.69;;;22.00;100.00
5988;BME280;3021;51.000;6.980;2022-10-17T10:16:29;68762.56;;;22.04;100.00
5988;BME280;3021;51.000;6.980;2022-10-17T10:18:55;68764.78;;;22.03;100.00
5988;BME280;3021;51.000;6.980;2022-10-17T10:21:24;68773.06;;;22.13;100.00
5988;BME280;3021;51.000;6.980;2022-10-17T10:26:42;68792.78;;;22.28;100.00
5988;BME280;3021;51.000;6.980;2022-10-17T10:32:06;68778.78;;;22.16;100.00
5988;BME280;3021;51.000;6.980;2022-10-17T10:34:33;68787.50;;;22.23;100.00
5988;BME280;3021;51.000;6.980;2022-10-17T10:37:05;68781.91;;;22.23;100.00
5988;BME280;3021;51.000;6.980;2022-10-17T10:42:29;68787.50;;;22.23;100.00
5988;BME280;3021;51.000;6.980;2022-10-17T10:45:03;68784.00;;;22.20;100.00
5988;BME280;3021;51.000;6.980;2022-10-17T10:47:55;68749.03;;;21.89;100.00
5988;BME280;3021;51.000;6.980;2022-10-17T10:50:31;68746.25;;;21.89;100.00
5988;BME280;3021;51.000;6.980;2022-10-17T10:53:13;68760.69;;;22.00;100.00
5988;BME280;3021;51.000;6.980;2022-10-17T10:55:48;68764.19;;;22.03;100.00
5988;BME280;3021;51.000;6.980;2022-10-17T11:00:52;68774.69;;;22.12;100.00
5988;BME280;3021;51.000;6.980;2022-10-17T11:03:25;68777.16;;;22.17;100.00
5988;BME280;3021;51.000;6.980;2022-10-17T11:06:07;68766.53;;;22.05;100.00
5988;BME280;3021;51.000;6.980;2022-10-17T11:08:43;68780.53;;;22.17;100.00
5988;BME280;3021;51.000;6.980;2022-10-17T11:11:33;68778.78;;;22.16;100.00
5988;BME280;3021;51.000;6.980;2022-10-17T11:14:15;68765.94;;;22.04;100.00
5988;BME280;3021;51.000;6.980;2022-10-17T11:19:55;68761.28;;;22.00;100.00
5988;BME280;3021;51.000;6.980;2022-10-17T11:22:30;68754.84;;;21.95;100.00
5988;BME280;3021;51.000;6.980;2022-10-17T11:25:07;68752.66;;;21.95;100.00
5988;BME280;3021;51.000;6.980;2022-10-17T11:27:38;68756.03;;;21.96;100.00
5988;BME280;3021;51.000;6.980;2022-10-17T11:30:04;68758.94;;;21.98;100.00
5988;BME280;3021;51.000;6.980;2022-10-17T11:32:37;68752.06;;;21.95;100.00
5988;BME280;3021;51.000;6.980;2022-10-17T11:35:24;68739.72;;;21.81;100.00
5988;BME280;3021;51.000;6.980;2022-10-17T11:38:16;68738.09;;;21.82;100.00
5988;BME280;3021;51.000;6.980;2022-10-17T11:40:49;68745.56;;;21.86;100.00
5988;BME280;3021;51.000;6.980;2022-10-17T11:43:26;68757.78;;;21.97;100.00
5988;BME280;3021;51.000;6.980;2022-10-17T11:45:59;68771.31;;;22.12;100.00
5988;BME280;3021;51.000;6.980;2022-10-17T11:48:34;68775.84;;;22.13;100.00
5988;BME280;3021;51.000;6.980;2022-10-17T11:51:08;68780.66;;;22.20;100.00
5988;BME280;3021;51.000;6.980;2022-10-17T11:57:05;68784.63;;;22.21;100.00
5988;BME280;3021;51.000;6.980;2022-10-17T12:02:41;68796.84;;;22.32;100.00
5988;BME280;3021;51.000;6.980;2022-10-17T12:12:42;68814.38;;;22.47;100.00
5988;BME280;3021;51.000;6.980;2022-10-17T12:17:37;68813.91;;;22.49;100.00
5988;BME280;3021;51.000;6.980;2022-10-17T12:25:20;68779.47;;;22.19;100.00
5988;BME280;3021;51.000;6.980;2022-10-17T12:27:47;68778.91;;;22.18;100.00
5988;BME280;3021;51.000;6.980;2022-10-17T12:30:25;68779.34;;;22.16;100.00
5988;BME280;3021;51.000;6.980;2022-10-17T12:35:28;68785.19;;;22.21;100.00
5988;BME280;3021;51.000;6.980;2022-10-17T12:45:53;68795.25;;;22.33;100.00
5988;BME280;3021;51.000;6.980;2022-10-17T12:51:15;68769.56;;;22.10;100.00
5988;BME280;3021;51.000;6.980;2022-10-17T12:54:09;68768.88;;;22.07;100.00
5988;BME280;3021;51.000;6.980;2022-10-17T12:56:39;68775.28;;;22.13;100.00
5988;BME280;3021;51.000;6.980;2022-10-17T12:59:11;68782.28;;;22.19;100.00
5988;BME280;3021;51.000;6.980;2022-10-17T13:01:37;68783.44;;;22.20;100.00
5988;BME280;3021;51.000;6.980;2022-10-17T13:04:03;68789.84;;;22.25;100.00
5988;BME280;3021;51.000;6.980;2022-10-17T13:06:34;68787.50;;;22.23;100.00
5988;BME280;3021;51.000;6.980;2022-10-17T13:09:07;68787.50;;;22.23;100.00
5988;BME280;3021;51.000;6.980;2022-10-17T13:11:36;68785.88;;;22.24;100.00
5988;BME280;3021;51.000;6.980;2022-10-17T13:14:09;68791.59;;;22.27;100.00
5988;BME280;3021;51.000;6.980;2022-10-17T13:16:38;68784.00;;;22.20;100.00
5988;BME280;3021;51.000;6.980;2022-10-17T13:19:15;68778.91;;;22.18;100.00
5988;BME280;3021;51.000;6.980;2022-10-17T13:21:55;68782.97;;;22.22;100.00
5988;BME280;3021;51.000;6.980;2022-10-17T13:26:53;68789.97;;;22.28;100.00
5988;BME280;3021;51.000;6.980;2022-10-17T13:29:18;68788.22;;;22.26;100.00
5988;BME280;3021;51.000;6.980;2022-10-17T13:31:53;68787.50;;;22.23;100.00
5988;BME280;3021;51.000;6.980;2022-10-17T13:34:22;68784.63;;;22.21;100.00
5988;BME280;3021;51.000;6.980;2022-10-17T13:36:53;68789.28;;;22.25;100.00
5988;BME280;3021;51.000;6.980;2022-10-17T13:39:28;68794.06;;;22.32;100.00
5988;BME280;3021;51.000;6.980;2022-10-17T13:41:55;68797.44;;;22.32;100.00
5988;BME280;3021;51.000;6.980;2022-10-17T13:44:27;68793.47;;;22.31;100.00
5988;BME280;3021;51.000;6.980;2022-10-17T13:46:56;68790.44;;;22.26;100.00
5988;BME280;3021;51.000;6.980;2022-10-17T13:49:38;68786.81;;;22.20;100.00
5988;BME280;3021;51.000;6.980;2022-10-17T13:52:06;68784.63;;;22.21;100.00
5988;BME280;3021;51.000;6.980;2022-10-17T13:54:40;68790.56;;;22.29;100.00
5988;BME280;3021;51.000;6.980;2022-10-17T13:57:35;68795.69;;;22.31;100.00
5988;BME280;3021;51.000;6.980;2022-10-17T14:00:05;68792.31;;;22.30;100.00
5988;BME280;3021;51.000;6.980;2022-10-17T14:02:33;68789.97;;;22.28;100.00
5988;BME280;3021;51.000;6.980;2022-10-17T14:05:19;68806.22;;;22.40;100.00
5988;BME280;3021;51.000;6.980;2022-10-17T14:07:51;68811.00;;;22.47;100.00
5988;BME280;3021;51.000;6.980;2022-10-17T14:10:23;68826.50;;;22.55;100.00
5988;BME280;3021;51.000;6.980;2022-10-17T14:12:53;68833.63;;;22.64;100.00
5988;BME280;3021;51.000;6.980;2022-10-17T14:15:21;68848.91;;;22.80;100.00
5988;BME280;3021;51.000;6.980;2022-10-17T14:17:55;68862.31;;;22.92;100.00
5988;BME280;3021;51.000;6.980;2022-10-17T14:20:22;68861.75;;;22.91;100.00
5988;BME280;3021;51.000;6.980;2022-10-17T14:22:48;68868.03;;;22.94;100.00
5988;BME280;3021;51.000;6.980;2022-10-17T14:28:15;68865.13;;;22.92;100.00
5988;BME280;3021;51.000;6.980;2022-10-17T14:30:44;68858.69;;;22.86;100.00
5988;BME280;3021;51.000;6.980;2022-10-17T14:33:26;68845.97;;;22.77;100.00
5988;BME280;3021;51.000;6.980;2022-10-17T14:35:57;68848.78;;;22.77;100.00
5988;BME280;3021;51.000;6.980;2022-10-17T14:38:24;68847.63;;;22.76;100.00
5988;BME280;3021;51.000;6.980;2022-10-17T14:40:58;68838.28;;;22.68;100.00
5988;BME280;3021;51.000;6.980;2022-10-17T14:43:27;68828.38;;;22.59;100.00
5988;BME280;3021;51.000;6.980;2022-10-17T14:45:57;68817.41;;;22.52;100.00
5988;BME280;3021;51.000;6.980;2022-10-17T14:48:23;68806.22;;;22.40;100.00
5988;BME280;3021;51.000;6.980;2022-10-17T14:51:12;68802.72;;;22.37;100.00
5988;BME280;3021;51.000;6.980;2022-10-17T14:53:43;68799.06;;;22.31;100.00
5988;BME280;3021;51.000;6.980;2022-10-17T14:56:24;68792.31;;;22.30;100.00
5988;BME280;3021;51.000;6.980;2022-10-17T14:58:49;68788.69;;;22.24;100.00
5988;BME280;3021;51.000;6.980;2022-10-17T15:01:16;68779.59;;;22.21;100.00
5988;BME280;3021;51.000;6.980;2022-10-17T15:03:41;68774.69;;;22.12;100.00
5988;BME280;3021;51.000;6.980;2022-10-17T15:06:22;68774.22;;;22.14;100.00
5988;BME280;3021;51.000;6.980;2022-10-17T15:08:48;68782.97;;;22.22;100.00
5988;BME280;3021;51.000;6.980;2022-10-17T15:11:14;68782.41;;;22.21;100.00
5988;BME280;3021;51.000;6.980;2022-10-17T15:13:39;68777.16;;;22.17;100.00
5988;BME280;3021;51.000;6.980;2022-10-17T15:16:26;68773.66;;;22.14;100.00
5988;BME280;3021;51.000;6.980;2022-10-17T15:18:52;68766.06;;;22.07;100.00
5988;BME280;3021;51.000;6.980;2022-10-17T15:21:22;68767.69;;;22.06;100.00
5988;BME280;3021;51.000;6.980;2022-10-17T15:23:48;68758.47;;;22.00;100.00
5988;BME280;3021;51.000;6.980;2022-10-17T15:26:20;68746.94;;;21.92;100.00